X  CloseMetar Aviation Weather Data     KSDL Scottsdale

Temperature

55°F Temperature

36°F Dewpoint

47% Humidity



Wind

 3 MPH

 5 KM/H

 1 M/S

 3 KTS



330°
NNWdir
Current Conditions

Clear Clear
Pressure 1016.22 (hPa) - 30.01 (in)
Visibility 10 (mi) - 16.1 (km)
Airport
Airport-code KSDL

Location Scottsdale 15 (mi)

Metar:
KSDL 131253Z 33003KT 10SM CLR 13/02 A3001 RMK AO2 SLP146 T01330022

Time: 11-13-2019 05:53